sensor_id;sensor_type;location;lat;lon;timestamp;P1;durP1;ratioP1;P2;durP2;ratioP2
69748;SDS011;57019;52.354;6.584;2022-11-20T00:00:48;9.13;;;3.90;;
69748;SDS011;57019;52.354;6.584;2022-11-20T00:03:13;9.33;;;3.60;;
69748;SDS011;57019;52.354;6.584;2022-11-20T00:05:38;8.20;;;3.37;;
69748;SDS011;57019;52.354;6.584;2022-11-20T00:08:04;9.00;;;3.40;;
69748;SDS011;57019;52.354;6.584;2022-11-20T00:10:29;8.53;;;3.60;;
69748;SDS011;57019;52.354;6.584;2022-11-20T00:12:55;8.98;;;3.92;;
69748;SDS011;57019;52.354;6.584;2022-11-20T00:15:22;8.73;;;3.47;;
69748;SDS011;57019;52.354;6.584;2022-11-20T00:17:47;8.30;;;3.40;;
69748;SDS011;57019;52.354;6.584;2022-11-20T00:20:12;8.73;;;3.30;;
69748;SDS011;57019;52.354;6.584;2022-11-20T00:22:38;7.93;;;3.33;;
69748;SDS011;57019;52.354;6.584;2022-11-20T00:25:03;9.50;;;3.90;;
69748;SDS011;57019;52.354;6.584;2022-11-20T00:27:29;7.82;;;3.50;;
69748;SDS011;57019;52.354;6.584;2022-11-20T00:29:54;8.60;;;3.73;;
69748;SDS011;57019;52.354;6.584;2022-11-20T00:32:20;9.23;;;3.60;;
69748;SDS011;57019;52.354;6.584;2022-11-20T00:34:45;8.63;;;3.43;;
69748;SDS011;57019;52.354;6.584;2022-11-20T00:37:11;8.10;;;3.40;;
69748;SDS011;57019;52.354;6.584;2022-11-20T00:39:36;8.50;;;3.83;;
69748;SDS011;57019;52.354;6.584;2022-11-20T00:42:01;9.03;;;3.67;;
69748;SDS011;57019;52.354;6.584;2022-11-20T00:44:27;8.90;;;3.47;;
69748;SDS011;57019;52.354;6.584;2022-11-20T00:46:52;10.17;;;3.77;;
69748;SDS011;57019;52.354;6.584;2022-11-20T00:49:17;9.40;;;3.40;;
69748;SDS011;57019;52.354;6.584;2022-11-20T00:51:43;8.60;;;3.47;;
69748;SDS011;57019;52.354;6.584;2022-11-20T00:54:09;8.80;;;3.83;;
69748;SDS011;57019;52.354;6.584;2022-11-20T00:56:35;8.23;;;3.40;;
69748;SDS011;57019;52.354;6.584;2022-11-20T00:59:00;8.60;;;3.57;;
69748;SDS011;57019;52.354;6.584;2022-11-20T01:01:26;8.80;;;3.80;;
69748;SDS011;57019;52.354;6.584;2022-11-20T01:03:54;8.45;;;3.72;;
69748;SDS011;57019;52.354;6.584;2022-11-20T01:06:26;8.52;;;3.67;;
69748;SDS011;57019;52.354;6.584;2022-11-20T01:08:55;8.50;;;3.50;;
69748;SDS011;57019;52.354;6.584;2022-11-20T01:11:26;8.80;;;3.40;;
69748;SDS011;57019;52.354;6.584;2022-11-20T01:13:55;8.30;;;3.30;;
69748;SDS011;57019;52.354;6.584;2022-11-20T01:16:25;9.48;;;3.72;;
69748;SDS011;57019;52.354;6.584;2022-11-20T01:18:53;8.30;;;3.60;;
69748;SDS011;57019;52.354;6.584;2022-11-20T01:21:22;8.23;;;3.50;;
69748;SDS011;57019;52.354;6.584;2022-11-20T01:23:52;8.32;;;3.55;;
69748;SDS011;57019;52.354;6.584;2022-11-20T01:26:19;8.85;;;3.63;;
69748;SDS011;57019;52.354;6.584;2022-11-20T01:29:05;9.55;;;3.72;;
69748;SDS011;57019;52.354;6.584;2022-11-20T01:31:33;8.27;;;3.60;;
69748;SDS011;57019;52.354;6.584;2022-11-20T01:34:02;8.35;;;3.60;;
69748;SDS011;57019;52.354;6.584;2022-11-20T01:36:30;9.00;;;3.45;;
69748;SDS011;57019;52.354;6.584;2022-11-20T01:38:58;8.52;;;3.65;;
69748;SDS011;57019;52.354;6.584;2022-11-20T01:41:25;8.82;;;3.80;;
69748;SDS011;57019;52.354;6.584;2022-11-20T01:44:10;10.03;;;3.60;;
69748;SDS011;57019;52.354;6.584;2022-11-20T01:46:40;8.75;;;3.42;;
69748;SDS011;57019;52.354;6.584;2022-11-20T01:51:50;8.65;;;3.50;;
69748;SDS011;57019;52.354;6.584;2022-11-20T01:54:19;8.50;;;3.60;;
69748;SDS011;57019;52.354;6.584;2022-11-20T01:56:51;9.10;;;3.70;;
69748;SDS011;57019;52.354;6.584;2022-11-20T01:59:19;7.35;;;3.25;;
69748;SDS011;57019;52.354;6.584;2022-11-20T02:01:47;8.30;;;3.40;;
69748;SDS011;57019;52.354;6.584;2022-11-20T02:04:13;8.37;;;3.37;;
69748;SDS011;57019;52.354;6.584;2022-11-20T02:06:47;8.45;;;3.40;;
69748;SDS011;57019;52.354;6.584;2022-11-20T02:09:15;8.63;;;3.65;;
69748;SDS011;57019;52.354;6.584;2022-11-20T02:11:41;8.00;;;3.37;;
69748;SDS011;57019;52.354;6.584;2022-11-20T02:14:06;9.05;;;3.50;;
69748;SDS011;57019;52.354;6.584;2022-11-20T02:16:37;8.03;;;3.37;;
69748;SDS011;57019;52.354;6.584;2022-11-20T02:19:06;9.70;;;3.70;;
69748;SDS011;57019;52.354;6.584;2022-11-20T02:21:40;7.93;;;3.42;;
69748;SDS011;57019;52.354;6.584;2022-11-20T02:24:15;8.25;;;3.28;;
69748;SDS011;57019;52.354;6.584;2022-11-20T02:26:47;7.93;;;3.10;;
69748;SDS011;57019;52.354;6.584;2022-11-20T02:32:21;8.60;;;3.33;;
69748;SDS011;57019;52.354;6.584;2022-11-20T02:34:49;9.38;;;3.70;;
69748;SDS011;57019;52.354;6.584;2022-11-20T02:37:14;8.33;;;3.67;;
69748;SDS011;57019;52.354;6.584;2022-11-20T02:39:40;7.93;;;3.50;;
69748;SDS011;57019;52.354;6.584;2022-11-20T02:42:06;8.23;;;3.50;;
69748;SDS011;57019;52.354;6.584;2022-11-20T02:44:32;7.47;;;3.13;;
69748;SDS011;57019;52.354;6.584;2022-11-20T02:46:57;7.93;;;3.37;;
69748;SDS011;57019;52.354;6.584;2022-11-20T02:49:24;7.40;;;3.20;;
69748;SDS011;57019;52.354;6.584;2022-11-20T02:51:50;8.23;;;3.63;;
69748;SDS011;57019;52.354;6.584;2022-11-20T02:54:15;8.80;;;3.47;;
69748;SDS011;57019;52.354;6.584;2022-11-20T02:56:40;8.87;;;3.60;;
69748;SDS011;57019;52.354;6.584;2022-11-20T02:59:07;10.83;;;3.40;;
69748;SDS011;57019;52.354;6.584;2022-11-20T03:01:33;8.38;;;3.28;;
69748;SDS011;57019;52.354;6.584;2022-11-20T03:03:58;7.63;;;2.97;;
69748;SDS011;57019;52.354;6.584;2022-11-20T03:06:24;9.30;;;3.63;;
69748;SDS011;57019;52.354;6.584;2022-11-20T03:08:49;8.77;;;3.30;;
69748;SDS011;57019;52.354;6.584;2022-11-20T03:11:14;8.03;;;3.10;;
69748;SDS011;57019;52.354;6.584;2022-11-20T03:13:40;7.80;;;3.10;;
69748;SDS011;57019;52.354;6.584;2022-11-20T03:16:07;8.68;;;3.30;;
69748;SDS011;57019;52.354;6.584;2022-11-20T03:18:40;7.70;;;3.22;;
69748;SDS011;57019;52.354;6.584;2022-11-20T03:21:06;8.03;;;3.23;;
69748;SDS011;57019;52.354;6.584;2022-11-20T03:23:32;7.78;;;3.03;;
69748;SDS011;57019;52.354;6.584;2022-11-20T03:26:19;7.85;;;3.47;;
69748;SDS011;57019;52.354;6.584;2022-11-20T03:28:47;8.02;;;3.20;;
69748;SDS011;57019;52.354;6.584;2022-11-20T03:31:26;7.75;;;3.10;;
69748;SDS011;57019;52.354;6.584;2022-11-20T03:33:55;7.53;;;3.23;;
69748;SDS011;57019;52.354;6.584;2022-11-20T03:36:21;8.00;;;3.40;;
69748;SDS011;57019;52.354;6.584;2022-11-20T03:38:47;7.50;;;3.20;;
69748;SDS011;57019;52.354;6.584;2022-11-20T03:41:14;7.65;;;3.05;;
69748;SDS011;57019;52.354;6.584;2022-11-20T03:43:50;7.90;;;3.08;;
69748;SDS011;57019;52.354;6.584;2022-11-20T03:46:16;7.63;;;2.92;;
69748;SDS011;57019;52.354;6.584;2022-11-20T03:48:41;7.73;;;3.23;;
69748;SDS011;57019;52.354;6.584;2022-11-20T03:51:10;7.73;;;3.30;;
69748;SDS011;57019;52.354;6.584;2022-11-20T03:53:37;7.63;;;3.10;;
69748;SDS011;57019;52.354;6.584;2022-11-20T03:56:02;7.60;;;3.17;;
69748;SDS011;57019;52.354;6.584;2022-11-20T03:58:28;9.10;;;3.40;;
69748;SDS011;57019;52.354;6.584;2022-11-20T04:00:54;8.35;;;3.30;;
69748;SDS011;57019;52.354;6.584;2022-11-20T04:03:19;7.47;;;3.00;;
69748;SDS011;57019;52.354;6.584;2022-11-20T04:05:44;6.77;;;3.07;;
69748;SDS011;57019;52.354;6.584;2022-11-20T04:08:10;7.40;;;3.13;;
69748;SDS011;57019;52.354;6.584;2022-11-20T04:10:35;7.27;;;3.00;;
69748;SDS011;57019;52.354;6.584;2022-11-20T04:13:00;7.97;;;3.07;;
69748;SDS011;57019;52.354;6.584;2022-11-20T04:15:25;7.53;;;3.00;;
69748;SDS011;57019;52.354;6.584;2022-11-20T04:17:53;8.43;;;3.20;;
69748;SDS011;57019;52.354;6.584;2022-11-20T04:20:19;7.97;;;3.13;;
69748;SDS011;57019;52.354;6.584;2022-11-20T04:22:44;7.57;;;3.10;;
69748;SDS011;57019;52.354;6.584;2022-11-20T04:25:10;8.20;;;3.33;;
69748;SDS011;57019;52.354;6.584;2022-11-20T04:27:35;7.30;;;3.00;;
69748;SDS011;57019;52.354;6.584;2022-11-20T04:30:01;7.50;;;3.10;;
69748;SDS011;57019;52.354;6.584;2022-11-20T04:32:26;8.50;;;3.23;;
69748;SDS011;57019;52.354;6.584;2022-11-20T04:34:51;7.80;;;2.90;;
69748;SDS011;57019;52.354;6.584;2022-11-20T04:37:18;7.47;;;3.20;;
69748;SDS011;57019;52.354;6.584;2022-11-20T04:39:44;7.63;;;2.90;;
69748;SDS011;57019;52.354;6.584;2022-11-20T04:42:09;7.53;;;3.10;;
69748;SDS011;57019;52.354;6.584;2022-11-20T04:44:53;8.15;;;3.22;;
69748;SDS011;57019;52.354;6.584;2022-11-20T04:47:19;7.60;;;2.97;;
69748;SDS011;57019;52.354;6.584;2022-11-20T04:49:45;7.63;;;3.10;;
69748;SDS011;57019;52.354;6.584;2022-11-20T04:52:10;8.57;;;3.17;;
69748;SDS011;57019;52.354;6.584;2022-11-20T04:54:35;7.23;;;2.87;;
69748;SDS011;57019;52.354;6.584;2022-11-20T04:57:01;7.97;;;3.40;;
69748;SDS011;57019;52.354;6.584;2022-11-20T04:59:26;7.90;;;3.10;;
69748;SDS011;57019;52.354;6.584;2022-11-20T05:01:51;8.03;;;3.13;;
69748;SDS011;57019;52.354;6.584;2022-11-20T05:04:17;7.30;;;3.10;;
69748;SDS011;57019;52.354;6.584;2022-11-20T05:06:42;7.90;;;3.30;;
69748;SDS011;57019;52.354;6.584;2022-11-20T05:09:07;7.60;;;3.10;;
69748;SDS011;57019;52.354;6.584;2022-11-20T05:11:33;8.30;;;3.03;;
69748;SDS011;57019;52.354;6.584;2022-11-20T05:13:59;9.13;;;3.27;;
69748;SDS011;57019;52.354;6.584;2022-11-20T05:16:25;8.30;;;3.50;;
69748;SDS011;57019;52.354;6.584;2022-11-20T05:18:51;8.68;;;3.40;;
69748;SDS011;57019;52.354;6.584;2022-11-20T05:21:17;7.13;;;3.05;;
69748;SDS011;57019;52.354;6.584;2022-11-20T05:23:43;8.00;;;3.10;;
69748;SDS011;57019;52.354;6.584;2022-11-20T05:26:17;7.13;;;2.90;;
69748;SDS011;57019;52.354;6.584;2022-11-20T05:28:44;8.07;;;3.28;;
69748;SDS011;57019;52.354;6.584;2022-11-20T05:31:28;7.73;;;3.27;;
69748;SDS011;57019;52.354;6.584;2022-11-20T05:33:54;7.72;;;3.50;;
69748;SDS011;57019;52.354;6.584;2022-11-20T05:36:20;8.50;;;3.15;;
69748;SDS011;57019;52.354;6.584;2022-11-20T05:38:46;7.53;;;3.17;;
69748;SDS011;57019;52.354;6.584;2022-11-20T05:41:12;7.50;;;3.07;;
69748;SDS011;57019;52.354;6.584;2022-11-20T05:43:40;8.50;;;3.50;;
69748;SDS011;57019;52.354;6.584;2022-11-20T05:46:09;8.82;;;3.60;;
69748;SDS011;57019;52.354;6.584;2022-11-20T05:48:36;7.43;;;3.20;;
69748;SDS011;57019;52.354;6.584;2022-11-20T05:51:03;8.13;;;3.22;;
69748;SDS011;57019;52.354;6.584;2022-11-20T05:53:31;8.40;;;3.23;;
69748;SDS011;57019;52.354;6.584;2022-11-20T05:56:00;7.30;;;2.90;;
69748;SDS011;57019;52.354;6.584;2022-11-20T05:58:31;7.75;;;3.13;;
69748;SDS011;57019;52.354;6.584;2022-11-20T06:01:17;9.70;;;3.05;;
69748;SDS011;57019;52.354;6.584;2022-11-20T06:03:43;7.50;;;3.13;;
69748;SDS011;57019;52.354;6.584;2022-11-20T06:06:13;7.93;;;2.93;;
69748;SDS011;57019;52.354;6.584;2022-11-20T06:08:39;7.50;;;3.00;;
69748;SDS011;57019;52.354;6.584;2022-11-20T06:11:06;8.10;;;3.20;;
69748;SDS011;57019;52.354;6.584;2022-11-20T06:13:33;7.70;;;3.25;;
69748;SDS011;57019;52.354;6.584;2022-11-20T06:15:59;8.17;;;3.40;;
69748;SDS011;57019;52.354;6.584;2022-11-20T06:18:26;7.37;;;3.07;;
69748;SDS011;57019;52.354;6.584;2022-11-20T06:21:04;7.40;;;3.03;;
69748;SDS011;57019;52.354;6.584;2022-11-20T06:23:31;8.18;;;3.00;;
69748;SDS011;57019;52.354;6.584;2022-11-20T06:26:00;7.55;;;3.10;;
69748;SDS011;57019;52.354;6.584;2022-11-20T06:28:27;7.80;;;3.20;;
69748;SDS011;57019;52.354;6.584;2022-11-20T06:30:52;7.03;;;2.87;;
69748;SDS011;57019;52.354;6.584;2022-11-20T06:33:18;7.27;;;3.10;;
69748;SDS011;57019;52.354;6.584;2022-11-20T06:35:43;7.40;;;3.00;;
69748;SDS011;57019;52.354;6.584;2022-11-20T06:38:09;8.03;;;3.23;;
69748;SDS011;57019;52.354;6.584;2022-11-20T06:40:34;7.57;;;3.10;;
69748;SDS011;57019;52.354;6.584;2022-11-20T06:42:59;7.80;;;3.33;;
69748;SDS011;57019;52.354;6.584;2022-11-20T06:45:25;8.30;;;3.10;;
69748;SDS011;57019;52.354;6.584;2022-11-20T06:47:51;9.50;;;3.33;;
69748;SDS011;57019;52.354;6.584;2022-11-20T06:50:17;8.57;;;3.10;;
69748;SDS011;57019;52.354;6.584;2022-11-20T06:52:42;7.30;;;3.00;;
69748;SDS011;57019;52.354;6.584;2022-11-20T06:55:07;8.17;;;3.23;;
69748;SDS011;57019;52.354;6.584;2022-11-20T06:57:33;7.33;;;3.00;;
69748;SDS011;57019;52.354;6.584;2022-11-20T06:59:58;8.33;;;3.30;;
69748;SDS011;57019;52.354;6.584;2022-11-20T07:02:23;7.80;;;2.90;;
69748;SDS011;57019;52.354;6.584;2022-11-20T07:04:49;7.80;;;2.93;;
69748;SDS011;57019;52.354;6.584;2022-11-20T07:07:14;7.97;;;3.10;;
69748;SDS011;57019;52.354;6.584;2022-11-20T07:09:39;7.20;;;3.00;;
69748;SDS011;57019;52.354;6.584;2022-11-20T07:12:05;7.20;;;2.87;;
69748;SDS011;57019;52.354;6.584;2022-11-20T07:14:30;7.00;;;2.80;;
69748;SDS011;57019;52.354;6.584;2022-11-20T07:16:56;7.90;;;2.80;;
69748;SDS011;57019;52.354;6.584;2022-11-20T07:19:21;7.77;;;2.97;;
69748;SDS011;57019;52.354;6.584;2022-11-20T07:21:46;8.07;;;3.23;;
69748;SDS011;57019;52.354;6.584;2022-11-20T07:24:12;7.30;;;2.80;;
69748;SDS011;57019;52.354;6.584;2022-11-20T07:26:37;7.03;;;2.83;;
69748;SDS011;57019;52.354;6.584;2022-11-20T07:29:02;7.93;;;3.10;;
69748;SDS011;57019;52.354;6.584;2022-11-20T07:31:28;8.18;;;2.80;;
69748;SDS011;57019;52.354;6.584;2022-11-20T07:34:02;7.85;;;3.22;;
69748;SDS011;57019;52.354;6.584;2022-11-20T07:36:27;8.27;;;2.87;;
69748;SDS011;57019;52.354;6.584;2022-11-20T07:38:54;7.32;;;2.80;;
69748;SDS011;57019;52.354;6.584;2022-11-20T07:41:19;9.43;;;3.27;;
69748;SDS011;57019;52.354;6.584;2022-11-20T07:43:45;7.63;;;3.00;;
69748;SDS011;57019;52.354;6.584;2022-11-20T07:46:10;11.00;;;3.13;;
69748;SDS011;57019;52.354;6.584;2022-11-20T07:48:36;7.77;;;3.00;;
69748;SDS011;57019;52.354;6.584;2022-11-20T07:51:02;8.43;;;3.22;;
69748;SDS011;57019;52.354;6.584;2022-11-20T07:53:27;7.43;;;2.97;;
69748;SDS011;57019;52.354;6.584;2022-11-20T07:55:52;7.83;;;3.00;;
69748;SDS011;57019;52.354;6.584;2022-11-20T07:58:18;7.60;;;2.93;;
69748;SDS011;57019;52.354;6.584;2022-11-20T08:00:44;7.47;;;3.00;;
69748;SDS011;57019;52.354;6.584;2022-11-20T08:03:10;8.13;;;3.07;;
69748;SDS011;57019;52.354;6.584;2022-11-20T08:05:35;8.17;;;3.07;;
69748;SDS011;57019;52.354;6.584;2022-11-20T08:08:01;7.80;;;2.85;;
69748;SDS011;57019;52.354;6.584;2022-11-20T08:10:26;7.20;;;2.87;;
69748;SDS011;57019;52.354;6.584;2022-11-20T08:12:52;7.70;;;3.30;;
69748;SDS011;57019;52.354;6.584;2022-11-20T08:15:37;7.50;;;2.88;;
69748;SDS011;57019;52.354;6.584;2022-11-20T08:18:05;8.30;;;3.20;;
69748;SDS011;57019;52.354;6.584;2022-11-20T08:20:38;6.97;;;2.83;;
69748;SDS011;57019;52.354;6.584;2022-11-20T08:23:05;7.23;;;3.13;;
69748;SDS011;57019;52.354;6.584;2022-11-20T08:25:32;7.53;;;2.90;;
69748;SDS011;57019;52.354;6.584;2022-11-20T08:28:00;8.60;;;3.13;;
69748;SDS011;57019;52.354;6.584;2022-11-20T08:30:27;8.33;;;3.00;;
69748;SDS011;57019;52.354;6.584;2022-11-20T08:32:52;7.00;;;2.78;;
69748;SDS011;57019;52.354;6.584;2022-11-20T08:35:19;7.40;;;3.00;;
69748;SDS011;57019;52.354;6.584;2022-11-20T08:37:48;7.43;;;2.80;;
69748;SDS011;57019;52.354;6.584;2022-11-20T08:40:13;7.75;;;3.10;;
69748;SDS011;57019;52.354;6.584;2022-11-20T08:42:48;7.20;;;2.87;;
69748;SDS011;57019;52.354;6.584;2022-11-20T08:45:15;7.10;;;2.78;;
69748;SDS011;57019;52.354;6.584;2022-11-20T08:47:42;7.82;;;3.22;;
69748;SDS011;57019;52.354;6.584;2022-11-20T08:50:10;9.00;;;3.00;;
69748;SDS011;57019;52.354;6.584;2022-11-20T08:52:36;8.70;;;3.42;;
69748;SDS011;57019;52.354;6.584;2022-11-20T08:55:03;8.67;;;3.10;;
69748;SDS011;57019;52.354;6.584;2022-11-20T08:57:31;8.13;;;2.97;;
69748;SDS011;57019;52.354;6.584;2022-11-20T08:59:57;7.80;;;3.03;;
69748;SDS011;57019;52.354;6.584;2022-11-20T09:02:22;8.67;;;3.40;;
69748;SDS011;57019;52.354;6.584;2022-11-20T09:04:48;7.87;;;3.20;;
69748;SDS011;57019;52.354;6.584;2022-11-20T09:07:15;8.93;;;3.20;;
69748;SDS011;57019;52.354;6.584;2022-11-20T09:09:40;7.72;;;3.17;;
69748;SDS011;57019;52.354;6.584;2022-11-20T09:12:05;7.20;;;3.00;;
69748;SDS011;57019;52.354;6.584;2022-11-20T09:14:30;7.13;;;3.10;;
69748;SDS011;57019;52.354;6.584;2022-11-20T09:16:56;8.23;;;3.60;;
69748;SDS011;57019;52.354;6.584;2022-11-20T09:19:23;7.67;;;3.17;;
69748;SDS011;57019;52.354;6.584;2022-11-20T09:21:49;7.18;;;2.85;;
69748;SDS011;57019;52.354;6.584;2022-11-20T09:24:14;7.77;;;2.90;;
69748;SDS011;57019;52.354;6.584;2022-11-20T09:26:39;8.00;;;3.00;;
69748;SDS011;57019;52.354;6.584;2022-11-20T09:29:05;8.20;;;3.00;;
69748;SDS011;57019;52.354;6.584;2022-11-20T09:31:30;7.75;;;3.00;;
69748;SDS011;57019;52.354;6.584;2022-11-20T09:33:57;8.03;;;2.93;;
69748;SDS011;57019;52.354;6.584;2022-11-20T09:36:22;6.95;;;3.08;;
69748;SDS011;57019;52.354;6.584;2022-11-20T09:38:48;7.77;;;2.97;;
69748;SDS011;57019;52.354;6.584;2022-11-20T09:41:32;7.53;;;3.05;;
69748;SDS011;57019;52.354;6.584;2022-11-20T09:44:24;6.60;;;2.50;;
69748;SDS011;57019;52.354;6.584;2022-11-20T09:46:57;8.25;;;3.00;;
69748;SDS011;57019;52.354;6.584;2022-11-20T09:52:42;7.27;;;2.80;;
69748;SDS011;57019;52.354;6.584;2022-11-20T09:54:56;6.93;;;3.05;;
69748;SDS011;57019;52.354;6.584;2022-11-20T09:57:23;7.90;;;3.10;;
69748;SDS011;57019;52.354;6.584;2022-11-20T09:59:54;7.63;;;2.88;;
69748;SDS011;57019;52.354;6.584;2022-11-20T10:05:11;7.27;;;3.00;;
69748;SDS011;57019;52.354;6.584;2022-11-20T10:07:47;7.40;;;2.88;;
69748;SDS011;57019;52.354;6.584;2022-11-20T10:15:36;7.60;;;2.93;;
69748;SDS011;57019;52.354;6.584;2022-11-20T10:18:13;8.25;;;3.10;;
69748;SDS011;57019;52.354;6.584;2022-11-20T10:20:55;7.57;;;2.85;;
69748;SDS011;57019;52.354;6.584;2022-11-20T10:26:39;9.00;;;2.92;;
69748;SDS011;57019;52.354;6.584;2022-11-20T10:29:32;7.07;;;2.73;;
69748;SDS011;57019;52.354;6.584;2022-11-20T10:32:03;7.05;;;2.67;;
69748;SDS011;57019;52.354;6.584;2022-11-20T10:37:30;6.82;;;2.88;;
69748;SDS011;57019;52.354;6.584;2022-11-20T10:42:46;9.37;;;2.80;;
69748;SDS011;57019;52.354;6.584;2022-11-20T10:47:49;6.97;;;2.75;;
69748;SDS011;57019;52.354;6.584;2022-11-20T10:50:17;6.68;;;2.60;;
69748;SDS011;57019;52.354;6.584;2022-11-20T10:52:52;8.13;;;2.95;;
69748;SDS011;57019;52.354;6.584;2022-11-20T10:55:41;8.10;;;3.10;;
69748;SDS011;57019;52.354;6.584;2022-11-20T10:58:13;7.10;;;2.67;;
69748;SDS011;57019;52.354;6.584;2022-11-20T11:00:47;6.93;;;2.70;;
69748;SDS011;57019;52.354;6.584;2022-11-20T11:03:28;7.30;;;2.70;;
69748;SDS011;57019;52.354;6.584;2022-11-20T11:06:08;6.75;;;2.80;;
69748;SDS011;57019;52.354;6.584;2022-11-20T11:08:42;7.20;;;2.80;;
69748;SDS011;57019;52.354;6.584;2022-11-20T11:11:21;6.50;;;2.63;;
69748;SDS011;57019;52.354;6.584;2022-11-20T11:13:49;7.93;;;2.73;;
69748;SDS011;57019;52.354;6.584;2022-11-20T11:16:25;7.60;;;3.00;;
69748;SDS011;57019;52.354;6.584;2022-11-20T11:19:07;6.82;;;2.80;;
69748;SDS011;57019;52.354;6.584;2022-11-20T11:21:37;6.47;;;2.50;;
69748;SDS011;57019;52.354;6.584;2022-11-20T11:24:14;7.03;;;2.75;;
69748;SDS011;57019;52.354;6.584;2022-11-20T11:27:09;7.37;;;2.73;;
69748;SDS011;57019;52.354;6.584;2022-11-20T11:29:37;7.45;;;2.72;;
69748;SDS011;57019;52.354;6.584;2022-11-20T11:32:04;9.07;;;2.80;;
69748;SDS011;57019;52.354;6.584;2022-11-20T11:34:43;7.43;;;2.55;;
69748;SDS011;57019;52.354;6.584;2022-11-20T11:37:10;6.93;;;2.72;;
69748;SDS011;57019;52.354;6.584;2022-11-20T11:39:44;9.03;;;2.63;;
69748;SDS011;57019;52.354;6.584;2022-11-20T11:42:12;6.75;;;2.60;;
69748;SDS011;57019;52.354;6.584;2022-11-20T11:44:46;6.75;;;2.50;;
69748;SDS011;57019;52.354;6.584;2022-11-20T11:50:17;9.05;;;3.13;;
69748;SDS011;57019;52.354;6.584;2022-11-20T11:55:53;7.07;;;2.90;;
69748;SDS011;57019;52.354;6.584;2022-11-20T11:58:41;6.53;;;2.65;;
69748;SDS011;57019;52.354;6.584;2022-11-20T12:01:28;7.85;;;2.60;;
69748;SDS011;57019;52.354;6.584;2022-11-20T12:04:08;6.72;;;2.75;;
69748;SDS011;57019;52.354;6.584;2022-11-20T12:08:02;8.67;;;2.50;;
69748;SDS011;57019;52.354;6.584;2022-11-20T12:10:33;10.02;;;2.60;;
69748;SDS011;57019;52.354;6.584;2022-11-20T12:15:59;6.63;;;2.50;;
69748;SDS011;57019;52.354;6.584;2022-11-20T12:18:25;9.65;;;2.42;;
69748;SDS011;57019;52.354;6.584;2022-11-20T12:23:44;8.25;;;2.60;;
69748;SDS011;57019;52.354;6.584;2022-11-20T12:29:42;7.45;;;2.70;;
69748;SDS011;57019;52.354;6.584;2022-11-20T12:35:11;6.30;;;2.50;;
69748;SDS011;57019;52.354;6.584;2022-11-20T12:40:35;6.80;;;2.35;;
69748;SDS011;57019;52.354;6.584;2022-11-20T13:05:24;6.18;;;2.30;;
69748;SDS011;57019;52.354;6.584;2022-11-20T13:08:01;6.45;;;2.45;;
69748;SDS011;57019;52.354;6.584;2022-11-20T13:10:32;6.13;;;2.35;;
69748;SDS011;57019;52.354;6.584;2022-11-20T13:13:15;6.45;;;2.50;;
69748;SDS011;57019;52.354;6.584;2022-11-20T13:19:13;6.60;;;2.60;;
69748;SDS011;57019;52.354;6.584;2022-11-20T13:21:42;6.40;;;2.65;;
69748;SDS011;57019;52.354;6.584;2022-11-20T13:26:58;6.60;;;2.22;;
69748;SDS011;57019;52.354;6.584;2022-11-20T13:29:27;6.80;;;2.40;;
69748;SDS011;57019;52.354;6.584;2022-11-20T13:32:00;7.10;;;2.40;;
69748;SDS011;57019;52.354;6.584;2022-11-20T13:34:51;5.95;;;2.20;;
69748;SDS011;57019;52.354;6.584;2022-11-20T13:37:31;6.22;;;2.28;;
69748;SDS011;57019;52.354;6.584;2022-11-20T13:40:11;6.60;;;2.40;;
69748;SDS011;57019;52.354;6.584;2022-11-20T13:43:07;7.67;;;2.30;;
69748;SDS011;57019;52.354;6.584;2022-11-20T13:45:42;6.32;;;2.50;;
69748;SDS011;57019;52.354;6.584;2022-11-20T13:48:26;6.30;;;2.15;;
69748;SDS011;57019;52.354;6.584;2022-11-20T13:51:20;6.32;;;2.30;;
69748;SDS011;57019;52.354;6.584;2022-11-20T13:59:58;8.88;;;2.30;;
69748;SDS011;57019;52.354;6.584;2022-11-20T14:02:35;6.47;;;2.30;;
69748;SDS011;57019;52.354;6.584;2022-11-20T14:05:00;7.43;;;2.40;;
69748;SDS011;57019;52.354;6.584;2022-11-20T14:07:35;5.85;;;2.33;;
69748;SDS011;57019;52.354;6.584;2022-11-20T14:10:04;6.93;;;2.22;;
69748;SDS011;57019;52.354;6.584;2022-11-20T14:12:44;6.03;;;2.10;;
69748;SDS011;57019;52.354;6.584;2022-11-20T14:15:23;9.03;;;2.00;;
69748;SDS011;57019;52.354;6.584;2022-11-20T14:17:56;7.27;;;2.50;;
69748;SDS011;57019;52.354;6.584;2022-11-20T14:20:23;6.03;;;2.25;;
69748;SDS011;57019;52.354;6.584;2022-11-20T14:22:52;6.90;;;2.15;;
69748;SDS011;57019;52.354;6.584;2022-11-20T14:25:20;11.98;;;3.05;;
69748;SDS011;57019;52.354;6.584;2022-11-20T14:27:55;7.80;;;2.30;;
69748;SDS011;57019;52.354;6.584;2022-11-20T14:30:23;6.53;;;2.40;;
69748;SDS011;57019;52.354;6.584;2022-11-20T14:32:50;6.55;;;2.50;;
69748;SDS011;57019;52.354;6.584;2022-11-20T14:35:28;6.22;;;2.42;;
69748;SDS011;57019;52.354;6.584;2022-11-20T14:37:56;8.13;;;2.38;;
69748;SDS011;57019;52.354;6.584;2022-11-20T14:40:26;6.57;;;2.53;;
69748;SDS011;57019;52.354;6.584;2022-11-20T14:42:57;6.70;;;2.10;;
69748;SDS011;57019;52.354;6.584;2022-11-20T14:45:23;6.38;;;2.40;;
69748;SDS011;57019;52.354;6.584;2022-11-20T14:47:51;7.20;;;2.42;;
69748;SDS011;57019;52.354;6.584;2022-11-20T14:50:22;8.50;;;2.35;;
69748;SDS011;57019;52.354;6.584;2022-11-20T14:52:53;7.28;;;2.30;;
69748;SDS011;57019;52.354;6.584;2022-11-20T14:55:27;6.63;;;2.30;;
69748;SDS011;57019;52.354;6.584;2022-11-20T14:57:57;6.10;;;2.30;;
69748;SDS011;57019;52.354;6.584;2022-11-20T15:00:30;6.13;;;2.15;;
69748;SDS011;57019;52.354;6.584;2022-11-20T15:02:57;9.32;;;2.22;;
69748;SDS011;57019;52.354;6.584;2022-11-20T15:05:24;6.50;;;2.33;;
69748;SDS011;57019;52.354;6.584;2022-11-20T15:08:08;7.28;;;2.10;;
69748;SDS011;57019;52.354;6.584;2022-11-20T15:10:35;6.15;;;2.13;;
69748;SDS011;57019;52.354;6.584;2022-11-20T15:13:11;8.25;;;2.53;;
69748;SDS011;57019;52.354;6.584;2022-11-20T15:18:10;6.32;;;2.25;;
69748;SDS011;57019;52.354;6.584;2022-11-20T15:20:38;6.95;;;2.50;;
69748;SDS011;57019;52.354;6.584;2022-11-20T15:23:08;6.83;;;2.47;;
69748;SDS011;57019;52.354;6.584;2022-11-20T15:25:36;7.03;;;2.40;;
69748;SDS011;57019;52.354;6.584;2022-11-20T15:28:04;7.53;;;2.50;;
69748;SDS011;57019;52.354;6.584;2022-11-20T15:30:52;6.22;;;2.30;;
69748;SDS011;57019;52.354;6.584;2022-11-20T15:33:18;6.10;;;2.33;;
69748;SDS011;57019;52.354;6.584;2022-11-20T15:35:43;6.70;;;2.70;;
69748;SDS011;57019;52.354;6.584;2022-11-20T15:38:10;7.53;;;2.70;;
69748;SDS011;57019;52.354;6.584;2022-11-20T15:40:35;8.57;;;2.93;;
69748;SDS011;57019;52.354;6.584;2022-11-20T15:43:01;8.10;;;2.90;;
69748;SDS011;57019;52.354;6.584;2022-11-20T15:48:12;6.80;;;2.70;;
69748;SDS011;57019;52.354;6.584;2022-11-20T15:50:43;10.07;;;3.60;;
69748;SDS011;57019;52.354;6.584;2022-11-20T15:53:15;8.63;;;3.53;;
69748;SDS011;57019;52.354;6.584;2022-11-20T15:55:41;10.40;;;4.10;;
69748;SDS011;57019;52.354;6.584;2022-11-20T15:58:06;11.37;;;4.40;;
69748;SDS011;57019;52.354;6.584;2022-11-20T16:00:31;18.03;;;5.07;;
69748;SDS011;57019;52.354;6.584;2022-11-20T16:02:57;14.10;;;4.87;;
69748;SDS011;57019;52.354;6.584;2022-11-20T16:05:22;13.47;;;5.00;;
69748;SDS011;57019;52.354;6.584;2022-11-20T16:07:48;13.50;;;4.95;;
69748;SDS011;57019;52.354;6.584;2022-11-20T16:10:15;15.05;;;5.65;;
69748;SDS011;57019;52.354;6.584;2022-11-20T16:12:41;10.83;;;4.70;;
69748;SDS011;57019;52.354;6.584;2022-11-20T16:15:25;12.05;;;4.80;;
69748;SDS011;57019;52.354;6.584;2022-11-20T16:18:10;12.10;;;4.63;;
69748;SDS011;57019;52.354;6.584;2022-11-20T16:20:36;11.07;;;4.90;;
69748;SDS011;57019;52.354;6.584;2022-11-20T16:23:02;15.55;;;4.88;;
69748;SDS011;57019;52.354;6.584;2022-11-20T16:25:28;12.45;;;4.50;;
69748;SDS011;57019;52.354;6.584;2022-11-20T16:27:54;14.17;;;4.90;;
69748;SDS011;57019;52.354;6.584;2022-11-20T16:30:19;10.33;;;4.13;;